createdAt,value
2018-09-25T00:00:09.663Z,5.60
2018-09-25T00:02:43.362Z,5.60
2018-09-25T00:05:17.113Z,5.60
2018-09-25T00:07:50.666Z,5.60
2018-09-25T00:10:24.364Z,5.60
2018-09-25T00:12:57.976Z,5.70
2018-09-25T00:15:31.525Z,5.60
2018-09-25T00:18:05.053Z,5.80
2018-09-25T00:20:38.670Z,5.80
2018-09-25T00:23:12.489Z,5.80
2018-09-25T00:25:46.221Z,5.70
2018-09-25T00:28:19.815Z,5.70
2018-09-25T00:30:53.543Z,5.80
2018-09-25T00:33:27.345Z,5.70
2018-09-25T00:36:01.004Z,5.70
2018-09-25T00:38:34.765Z,5.70
2018-09-25T00:41:08.468Z,5.80
2018-09-25T00:43:42.308Z,5.80
2018-09-25T00:46:16.068Z,5.70
2018-09-25T00:48:49.845Z,5.70
2018-09-25T00:51:23.530Z,5.70
2018-09-25T00:53:57.287Z,5.70
2018-09-25T00:56:30.837Z,5.70
2018-09-25T00:59:04.584Z,5.70
2018-09-25T01:01:38.389Z,5.70
2018-09-25T01:04:12.249Z,5.70
2018-09-25T01:06:45.797Z,5.80
2018-09-25T01:09:19.549Z,5.80
2018-09-25T01:11:53.305Z,5.80
2018-09-25T01:14:27.062Z,5.70
2018-09-25T01:17:00.740Z,5.60
2018-09-25T01:19:34.533Z,5.60
2018-09-25T01:22:08.223Z,5.60
2018-09-25T01:24:41.792Z,5.60
2018-09-25T01:27:15.577Z,5.50
2018-09-25T01:29:49.407Z,5.60
2018-09-25T01:32:23.000Z,5.60
2018-09-25T01:34:56.704Z,5.60
2018-09-25T01:37:30.617Z,5.60
2018-09-25T01:40:04.326Z,5.60
2018-09-25T01:42:38.070Z,5.60
2018-09-25T01:45:11.896Z,5.60
2018-09-25T01:47:45.558Z,5.60
2018-09-25T01:50:19.365Z,5.60
2018-09-25T01:52:52.921Z,5.50
2018-09-25T01:55:26.761Z,5.50
2018-09-25T01:58:00.644Z,5.50
2018-09-25T02:00:34.284Z,5.40
2018-09-25T02:03:07.853Z,5.30
2018-09-25T02:05:41.496Z,5.20
2018-09-25T02:08:15.229Z,5.30
2018-09-25T02:10:49.056Z,5.30
2018-09-25T02:13:22.560Z,5.30
2018-09-25T02:15:56.269Z,5.40
2018-09-25T02:18:30.176Z,5.40
2018-09-25T02:21:03.873Z,5.50
2018-09-25T02:23:37.709Z,5.40
2018-09-25T02:26:11.443Z,5.40
2018-09-25T02:28:45.085Z,5.30
2018-09-25T02:31:18.885Z,5.20
2018-09-25T02:33:52.613Z,5.20
2018-09-25T02:36:26.390Z,5.20
2018-09-25T02:38:59.998Z,5.20
2018-09-25T02:41:33.718Z,5.20
2018-09-25T02:44:07.489Z,5.10
2018-09-25T02:46:41.240Z,5.10
2018-09-25T02:49:14.867Z,5.10
2018-09-25T02:51:48.607Z,5.00
2018-09-25T02:54:22.246Z,5.00
2018-09-25T02:56:55.970Z,5.00
2018-09-25T02:59:29.574Z,4.90
2018-09-25T03:02:03.148Z,4.90
2018-09-25T03:04:36.859Z,5.00
2018-09-25T03:07:11.535Z,5.00
2018-09-25T03:09:45.161Z,5.00
2018-09-25T03:12:18.887Z,5.10
2018-09-25T03:14:52.488Z,5.10
2018-09-25T03:17:26.156Z,4.90
2018-09-25T03:19:59.886Z,4.90
2018-09-25T03:22:33.517Z,4.90
2018-09-25T03:25:07.153Z,5.00
2018-09-25T03:27:40.921Z,5.00
2018-09-25T03:30:14.716Z,5.00
2018-09-25T03:32:48.473Z,5.00
2018-09-25T03:35:22.065Z,5.10
2018-09-25T03:37:55.897Z,5.10
2018-09-25T03:40:29.582Z,5.10
2018-09-25T03:43:03.359Z,5.20
2018-09-25T03:45:37.105Z,5.20
2018-09-25T03:48:10.989Z,5.20
2018-09-25T03:50:44.688Z,5.20
2018-09-25T03:53:18.341Z,5.20
2018-09-25T03:55:52.034Z,5.10
2018-09-25T03:58:25.820Z,5.00
2018-09-25T04:00:59.544Z,5.00
2018-09-25T04:03:33.113Z,5.00
2018-09-25T04:06:06.775Z,5.00
2018-09-25T04:08:40.571Z,5.00
2018-09-25T04:11:14.177Z,5.00
2018-09-25T04:13:47.865Z,4.90
2018-09-25T04:16:21.689Z,4.90
2018-09-25T04:18:55.495Z,5.00
2018-09-25T04:21:29.186Z,4.90
2018-09-25T04:24:02.861Z,4.90
2018-09-25T04:26:36.551Z,4.90
2018-09-25T04:29:10.163Z,4.90
2018-09-25T04:31:43.769Z,4.80
2018-09-25T04:34:17.368Z,4.80
2018-09-25T04:36:50.981Z,4.80
2018-09-25T04:39:24.609Z,4.80
2018-09-25T04:41:58.205Z,4.80
2018-09-25T04:44:31.769Z,4.80
2018-09-25T04:47:05.523Z,4.80
2018-09-25T04:49:39.193Z,4.80
2018-09-25T04:52:12.901Z,4.80
2018-09-25T04:54:46.626Z,4.90
2018-09-25T04:57:20.461Z,4.80
2018-09-25T04:59:54.205Z,4.80
2018-09-25T05:02:27.904Z,4.80
2018-09-25T05:05:01.641Z,4.80
2018-09-25T05:07:35.328Z,4.80
2018-09-25T05:10:09.123Z,4.70
2018-09-25T05:12:42.724Z,4.80
2018-09-25T05:15:16.288Z,4.70
2018-09-25T05:17:50.038Z,4.70
2018-09-25T05:20:23.864Z,4.70
2018-09-25T05:22:57.620Z,4.70
2018-09-25T05:25:31.348Z,4.70
2018-09-25T05:28:04.981Z,4.70
2018-09-25T05:30:38.821Z,4.70
2018-09-25T05:33:12.457Z,4.60
2018-09-25T05:35:46.225Z,4.80
2018-09-25T05:38:20.072Z,4.80
2018-09-25T05:40:53.836Z,4.90
2018-09-25T05:43:27.424Z,5.00
2018-09-25T05:46:01.273Z,5.00
2018-09-25T05:48:35.101Z,4.90
2018-09-25T05:51:08.621Z,5.00
2018-09-25T05:53:42.286Z,5.10
2018-09-25T05:56:15.922Z,5.10
2018-09-25T05:58:49.588Z,5.20
2018-09-25T06:01:23.367Z,5.30
2018-09-25T06:03:56.983Z,5.40
2018-09-25T06:06:30.787Z,5.40
2018-09-25T06:09:04.453Z,5.40
2018-09-25T06:11:38.204Z,5.40
2018-09-25T06:14:12.041Z,5.50
2018-09-25T06:16:45.760Z,5.50
2018-09-25T06:19:19.540Z,5.50
2018-09-25T06:21:53.362Z,5.50
2018-09-25T06:24:26.961Z,5.60
2018-09-25T06:27:00.625Z,5.80
2018-09-25T06:29:34.408Z,6.10
2018-09-25T06:32:08.210Z,6.50
2018-09-25T06:34:41.828Z,6.90
2018-09-25T06:37:15.545Z,7.30
2018-09-25T06:39:49.125Z,7.80
2018-09-25T06:42:22.940Z,8.10
2018-09-25T06:44:56.625Z,8.50
2018-09-25T06:47:30.365Z,8.80
2018-09-25T06:50:03.994Z,9.20
2018-09-25T06:52:37.795Z,9.40
2018-09-25T06:55:11.599Z,9.50
2018-09-25T06:57:45.189Z,9.60
2018-09-25T07:00:18.822Z,9.70
2018-09-25T07:02:52.605Z,9.90
2018-09-25T07:05:26.335Z,9.90
2018-09-25T07:08:00.056Z,10.00
2018-09-25T07:10:33.981Z,10.20
2018-09-25T07:13:07.590Z,10.00
2018-09-25T07:15:41.302Z,10.20
2018-09-25T07:18:14.974Z,10.30
2018-09-25T07:20:48.834Z,10.40
2018-09-25T07:23:22.665Z,10.30
2018-09-25T07:25:56.257Z,10.30
2018-09-25T07:28:29.964Z,10.30
2018-09-25T07:31:03.538Z,10.30
2018-09-25T07:33:37.352Z,10.50
2018-09-25T07:36:10.922Z,10.40
2018-09-25T07:38:44.608Z,10.50
2018-09-25T07:41:18.285Z,10.40
2018-09-25T07:43:52.069Z,10.50
2018-09-25T07:46:25.760Z,10.40
2018-09-25T07:48:59.558Z,10.40
2018-09-25T07:51:33.269Z,10.00
2018-09-25T07:54:06.915Z,9.80
2018-09-25T07:56:40.658Z,9.80
2018-09-25T07:59:14.429Z,9.70
2018-09-25T08:01:48.042Z,9.50
2018-09-25T08:04:21.829Z,9.70
2018-09-25T08:06:55.364Z,10.00
2018-09-25T08:09:29.275Z,10.20
2018-09-25T08:12:03.045Z,10.30
2018-09-25T08:14:36.849Z,10.30
2018-09-25T08:17:10.424Z,10.20
2018-09-25T08:19:44.109Z,10.20
2018-09-25T08:22:17.768Z,10.30
2018-09-25T08:24:51.480Z,10.40
2018-09-25T08:27:25.093Z,10.30
2018-09-25T08:29:58.940Z,10.20
2018-09-25T08:32:32.609Z,10.10
2018-09-25T08:35:06.200Z,10.50
2018-09-25T08:37:39.857Z,11.00
2018-09-25T08:40:13.628Z,11.30
2018-09-25T08:42:47.300Z,11.30
2018-09-25T08:45:20.915Z,11.30
2018-09-25T08:47:54.729Z,11.30
2018-09-25T08:50:28.481Z,11.40
2018-09-25T08:53:02.275Z,11.70
2018-09-25T08:55:35.913Z,11.70
2018-09-25T08:58:09.822Z,11.80
2018-09-25T09:00:43.693Z,11.80
2018-09-25T09:03:17.519Z,11.90
2018-09-25T09:05:51.234Z,11.70
2018-09-25T09:08:24.952Z,11.90
2018-09-25T09:10:58.700Z,12.00
2018-09-25T09:13:32.460Z,12.00
2018-09-25T09:16:06.266Z,12.00
2018-09-25T09:18:39.893Z,11.80
2018-09-25T09:21:13.471Z,11.90
2018-09-25T09:23:47.168Z,12.30
2018-09-25T09:26:20.975Z,12.20
2018-09-25T09:28:54.652Z,12.00
2018-09-25T09:31:28.304Z,11.90
2018-09-25T09:34:02.181Z,11.80
2018-09-25T09:36:35.891Z,11.80
2018-09-25T09:39:11.520Z,11.80
2018-09-25T09:41:45.493Z,12.10
2018-09-25T09:44:19.552Z,12.50
2018-09-25T09:46:53.253Z,12.80
2018-09-25T09:49:26.958Z,13.10
2018-09-25T09:52:00.590Z,13.40
2018-09-25T09:54:34.282Z,13.50
2018-09-25T09:57:08.049Z,13.40
2018-09-25T09:59:41.628Z,13.50
2018-09-25T10:02:15.532Z,13.90
2018-09-25T10:04:49.181Z,14.00
2018-09-25T10:07:22.926Z,13.80
2018-09-25T10:09:56.653Z,13.80
2018-09-25T10:12:30.344Z,13.80
2018-09-25T10:15:03.993Z,13.80
2018-09-25T10:17:37.541Z,14.00
2018-09-25T10:20:11.368Z,14.10
2018-09-25T10:22:45.008Z,14.10
2018-09-25T10:25:18.770Z,13.90
2018-09-25T10:27:52.481Z,13.80
2018-09-25T10:30:26.070Z,13.40
2018-09-25T10:32:59.838Z,13.40
2018-09-25T10:35:33.580Z,13.50
2018-09-25T10:38:07.481Z,13.20
2018-09-25T10:40:41.120Z,12.70
2018-09-25T10:43:14.834Z,12.60
2018-09-25T10:45:48.472Z,12.40
2018-09-25T10:48:22.193Z,12.00
2018-09-25T10:50:55.976Z,11.80
2018-09-25T10:53:29.700Z,11.60
2018-09-25T10:56:03.616Z,12.00
2018-09-25T10:58:37.182Z,12.50
2018-09-25T11:01:10.913Z,12.80
2018-09-25T11:03:44.657Z,13.10
2018-09-25T11:06:18.328Z,13.30
2018-09-25T11:08:52.198Z,13.50
2018-09-25T11:11:25.842Z,13.80
2018-09-25T11:13:59.633Z,13.60
2018-09-25T11:16:33.310Z,13.30
2018-09-25T11:19:06.869Z,12.90
2018-09-25T11:21:40.594Z,13.00
2018-09-25T11:24:14.372Z,13.10
2018-09-25T11:26:47.977Z,13.50
2018-09-25T11:29:21.690Z,13.70
2018-09-25T11:31:55.281Z,13.80
2018-09-25T11:34:29.085Z,13.90
2018-09-25T11:37:02.838Z,14.10
2018-09-25T11:39:36.544Z,14.00
2018-09-25T11:42:10.301Z,14.30
2018-09-25T11:44:43.889Z,14.00
2018-09-25T11:47:17.553Z,13.90
2018-09-25T11:49:51.424Z,13.90
2018-09-25T11:52:25.226Z,13.60
2018-09-25T11:54:58.909Z,13.90
2018-09-25T11:57:32.841Z,13.90
2018-09-25T12:00:06.602Z,14.10
2018-09-25T12:02:40.285Z,14.10
2018-09-25T12:05:14.081Z,13.80
2018-09-25T12:07:47.689Z,13.90
2018-09-25T12:10:21.337Z,13.90
2018-09-25T12:12:55.123Z,14.10
2018-09-25T12:15:28.872Z,14.30
2018-09-25T12:18:02.614Z,14.40
2018-09-25T12:20:36.278Z,14.60
2018-09-25T12:23:09.982Z,14.60
2018-09-25T12:25:43.805Z,14.30
2018-09-25T12:28:17.493Z,14.30
2018-09-25T12:30:51.145Z,14.40
2018-09-25T12:33:24.897Z,14.90
2018-09-25T12:35:58.749Z,15.20
2018-09-25T12:38:32.338Z,15.20
2018-09-25T12:41:06.249Z,15.10
2018-09-25T12:43:39.845Z,15.00
2018-09-25T12:46:13.611Z,14.60
2018-09-25T12:48:47.308Z,14.60
2018-09-25T12:51:20.944Z,15.00
2018-09-25T12:53:54.677Z,15.10
2018-09-25T12:56:28.461Z,15.00
2018-09-25T12:59:02.042Z,14.50
2018-09-25T13:01:35.846Z,14.40
2018-09-25T13:04:09.423Z,14.30
2018-09-25T13:06:43.245Z,14.40
2018-09-25T13:09:16.905Z,14.40
2018-09-25T13:11:50.761Z,14.70
2018-09-25T13:14:24.490Z,15.00
2018-09-25T13:16:58.285Z,14.90
2018-09-25T13:19:32.070Z,14.70
2018-09-25T13:22:05.825Z,14.80
2018-09-25T13:24:39.634Z,14.60
2018-09-25T13:27:13.478Z,14.40
2018-09-25T13:29:47.153Z,14.30
2018-09-25T13:32:20.750Z,14.60
2018-09-25T13:34:54.386Z,14.60
2018-09-25T13:37:28.139Z,14.90
2018-09-25T13:40:01.689Z,15.30
2018-09-25T13:42:35.560Z,15.30
2018-09-25T13:45:09.385Z,15.30
2018-09-25T13:47:43.202Z,14.70
2018-09-25T13:50:17.033Z,14.30
2018-09-25T13:52:50.708Z,14.10
2018-09-25T13:55:24.509Z,13.90
2018-09-25T13:57:58.321Z,13.80
2018-09-25T14:00:31.905Z,14.10
2018-09-25T14:03:05.610Z,14.20
2018-09-25T14:05:46.216Z,14.40
2018-09-25T14:08:19.878Z,14.50
2018-09-25T14:10:53.445Z,14.60
2018-09-25T14:13:27.217Z,14.40
2018-09-25T14:16:00.870Z,14.50
2018-09-25T14:18:34.587Z,14.60
2018-09-25T14:21:08.384Z,14.60
2018-09-25T14:23:42.278Z,14.40
2018-09-25T14:26:15.908Z,14.60
2018-09-25T14:28:49.542Z,14.50
2018-09-25T14:31:23.152Z,14.30
2018-09-25T14:33:56.901Z,14.30
2018-09-25T14:36:30.519Z,13.70
2018-09-25T14:39:04.205Z,13.70
2018-09-25T14:41:37.926Z,13.60
2018-09-25T14:44:11.689Z,13.50
2018-09-25T14:46:45.350Z,13.20
2018-09-25T14:49:18.997Z,13.30
2018-09-25T14:51:52.684Z,13.50
2018-09-25T14:54:26.355Z,13.70
2018-09-25T14:57:00.085Z,13.80
2018-09-25T14:59:33.965Z,14.00
2018-09-25T15:02:07.598Z,14.10
2018-09-25T15:04:41.416Z,13.90
2018-09-25T15:07:15.059Z,13.80
2018-09-25T15:09:48.681Z,13.50
2018-09-25T15:12:22.265Z,13.30
2018-09-25T15:14:55.897Z,13.30
2018-09-25T15:17:29.592Z,13.30
2018-09-25T15:20:03.245Z,13.40
2018-09-25T15:22:36.806Z,13.50
2018-09-25T15:25:10.754Z,13.30
2018-09-25T15:27:44.603Z,12.90
2018-09-25T15:30:18.413Z,12.60
2018-09-25T15:32:52.046Z,12.60
2018-09-25T15:35:25.814Z,12.60
2018-09-25T15:37:59.330Z,12.70
2018-09-25T15:40:33.161Z,12.70
2018-09-25T15:43:06.791Z,12.70
2018-09-25T15:45:40.408Z,12.60
2018-09-25T15:48:14.110Z,12.50
2018-09-25T15:50:47.865Z,12.30
2018-09-25T15:53:21.555Z,12.10
2018-09-25T15:55:55.327Z,12.20
2018-09-25T15:58:28.877Z,12.10
2018-09-25T16:01:02.509Z,12.10
2018-09-25T16:03:36.257Z,12.10
2018-09-25T16:06:09.936Z,12.10
2018-09-25T16:08:43.801Z,12.00
2018-09-25T16:11:17.511Z,11.90
2018-09-25T16:13:51.106Z,11.80
2018-09-25T16:16:24.917Z,11.60
2018-09-25T16:18:58.585Z,11.50
2018-09-25T16:21:32.385Z,11.40
2018-09-25T16:24:06.154Z,11.30
2018-09-25T16:26:39.865Z,11.30
2018-09-25T16:29:13.746Z,11.20
2018-09-25T16:31:47.613Z,11.00
2018-09-25T16:34:21.385Z,10.90
2018-09-25T16:36:55.186Z,10.90
2018-09-25T16:39:29.085Z,10.80
2018-09-25T16:42:02.857Z,10.70
2018-09-25T16:44:36.474Z,10.60
2018-09-25T16:47:10.188Z,10.50
2018-09-25T16:49:43.825Z,10.50
2018-09-25T16:52:17.649Z,10.40
2018-09-25T16:54:51.348Z,10.30
2018-09-25T16:57:25.037Z,10.20
2018-09-25T16:59:58.645Z,10.10
2018-09-25T17:02:32.446Z,10.10
2018-09-25T17:05:06.045Z,10.00
2018-09-25T17:07:39.797Z,9.90
2018-09-25T17:10:13.557Z,9.90
2018-09-25T17:12:47.430Z,9.80
2018-09-25T17:15:21.268Z,9.80
2018-09-25T17:17:54.917Z,9.80
2018-09-25T17:20:28.689Z,9.80
2018-09-25T17:23:02.453Z,9.60
2018-09-25T17:25:36.097Z,9.50
2018-09-25T17:28:09.930Z,9.50
2018-09-25T17:30:43.557Z,9.40
2018-09-25T17:33:17.281Z,9.40
2018-09-25T17:35:51.478Z,9.30
2018-09-25T17:38:25.118Z,9.30
2018-09-25T17:40:58.897Z,9.20
2018-09-25T17:43:32.718Z,9.20
2018-09-25T17:46:06.394Z,9.10
2018-09-25T17:48:40.257Z,9.00
2018-09-25T17:51:13.807Z,9.00
2018-09-25T17:53:47.566Z,8.90
2018-09-25T17:56:21.216Z,8.90
2018-09-25T17:58:54.825Z,8.80
2018-09-25T18:01:28.495Z,8.70
2018-09-25T18:04:02.330Z,8.70
2018-09-25T18:06:35.935Z,8.70
2018-09-25T18:09:11.484Z,8.70
2018-09-25T18:11:45.042Z,8.70
2018-09-25T18:14:18.797Z,8.50
2018-09-25T18:16:52.340Z,8.40
2018-09-25T18:19:26.315Z,8.40
2018-09-25T18:22:00.061Z,8.30
2018-09-25T18:24:33.791Z,8.30
2018-09-25T18:27:07.389Z,8.20
2018-09-25T18:29:41.009Z,8.20
2018-09-25T18:32:15.018Z,8.20
2018-09-25T18:34:48.694Z,8.10
2018-09-25T18:37:22.348Z,8.10
2018-09-25T18:39:56.005Z,8.10
2018-09-25T18:42:29.784Z,8.20
2018-09-25T18:45:03.474Z,8.10
2018-09-25T18:47:37.244Z,8.00
2018-09-25T18:50:11.091Z,8.00
2018-09-25T18:52:44.802Z,7.90
2018-09-25T18:55:18.424Z,7.80
2018-09-25T18:57:52.252Z,7.80
2018-09-25T19:00:26.025Z,7.80
2018-09-25T19:02:59.690Z,7.90
2018-09-25T19:05:33.337Z,8.00
2018-09-25T19:08:08.068Z,8.00
2018-09-25T19:10:41.796Z,7.90
2018-09-25T19:13:15.513Z,7.80
2018-09-25T19:15:49.296Z,7.80
2018-09-25T19:18:23.760Z,7.80
2018-09-25T19:20:57.691Z,7.80
2018-09-25T19:23:31.365Z,7.80
2018-09-25T19:26:05.022Z,7.80
2018-09-25T19:28:38.646Z,7.70
2018-09-25T19:31:12.421Z,7.70
2018-09-25T19:33:46.049Z,7.60
2018-09-25T19:36:19.754Z,7.50
2018-09-25T19:38:53.538Z,7.40
2018-09-25T19:41:27.157Z,7.30
2018-09-25T19:44:00.865Z,7.30
2018-09-25T19:46:34.613Z,7.50
2018-09-25T19:49:09.369Z,7.50
2018-09-25T19:51:42.974Z,7.50
2018-09-25T19:54:16.758Z,7.40
2018-09-25T19:56:50.553Z,7.30
2018-09-25T19:59:24.340Z,7.10
2018-09-25T20:01:58.142Z,7.00
2018-09-25T20:04:31.841Z,6.90
2018-09-25T20:07:05.610Z,6.80
2018-09-25T20:09:39.206Z,6.70
2018-09-25T20:12:12.782Z,6.80
2018-09-25T20:14:46.513Z,6.70
2018-09-25T20:17:20.281Z,6.60
2018-09-25T20:19:54.163Z,6.60
2018-09-25T20:22:27.873Z,6.50
2018-09-25T20:25:01.470Z,6.50
2018-09-25T20:27:35.193Z,6.50
2018-09-25T20:30:08.982Z,6.50
2018-09-25T20:32:42.658Z,6.60
2018-09-25T20:35:16.410Z,6.40
2018-09-25T20:37:50.189Z,6.50
2018-09-25T20:40:23.949Z,6.50
2018-09-25T20:42:57.550Z,6.60
2018-09-25T20:45:31.072Z,6.30
2018-09-25T20:48:04.685Z,6.20
2018-09-25T20:50:38.287Z,6.10
2018-09-25T20:53:12.229Z,6.00
2018-09-25T20:55:45.939Z,5.90
2018-09-25T20:58:19.737Z,6.10
2018-09-25T21:00:53.677Z,6.30
2018-09-25T21:03:27.673Z,6.40
2018-09-25T21:06:01.539Z,6.50
2018-09-25T21:08:35.201Z,6.50
2018-09-25T21:11:08.933Z,6.30
2018-09-25T21:13:42.563Z,6.20
2018-09-25T21:16:16.618Z,6.10
2018-09-25T21:18:50.862Z,6.00
2018-09-25T21:21:24.860Z,6.00
2018-09-25T21:23:58.987Z,6.10
2018-09-25T21:26:33.017Z,6.10
2018-09-25T21:29:07.072Z,6.10
2018-09-25T21:31:41.005Z,6.00
2018-09-25T21:34:15.175Z,5.90
2018-09-25T21:36:49.086Z,5.80
2018-09-25T21:39:22.887Z,5.70
2018-09-25T21:41:56.572Z,5.60
2018-09-25T21:44:30.291Z,5.60
2018-09-25T21:47:03.890Z,5.50
2018-09-25T21:49:37.653Z,5.60
2018-09-25T21:52:11.381Z,5.40
2018-09-25T21:54:44.966Z,5.30
2018-09-25T21:57:18.889Z,5.30
2018-09-25T21:59:52.610Z,5.40
2018-09-25T22:02:26.151Z,5.30
2018-09-25T22:04:59.834Z,5.20
2018-09-25T22:07:33.589Z,5.20
2018-09-25T22:10:07.417Z,5.30
2018-09-25T22:12:41.197Z,5.40
2018-09-25T22:15:14.917Z,5.40
2018-09-25T22:17:48.504Z,5.30
2018-09-25T22:20:22.325Z,5.30
2018-09-25T22:22:55.862Z,5.20
2018-09-25T22:25:29.525Z,5.10
2018-09-25T22:28:03.041Z,5.10
2018-09-25T22:30:36.643Z,5.10
2018-09-25T22:33:10.341Z,5.10
2018-09-25T22:35:44.112Z,5.10
2018-09-25T22:38:17.881Z,5.00
2018-09-25T22:40:51.634Z,5.00
2018-09-25T22:43:25.234Z,5.10
2018-09-25T22:45:59.013Z,4.90
2018-09-25T22:48:32.740Z,4.90
2018-09-25T22:51:06.296Z,4.90
2018-09-25T22:53:39.864Z,4.90
2018-09-25T22:56:13.540Z,4.90
2018-09-25T22:58:47.281Z,4.80
2018-09-25T23:01:20.905Z,4.80
2018-09-25T23:03:54.641Z,4.90
2018-09-25T23:06:28.424Z,4.80
2018-09-25T23:09:02.197Z,4.70
2018-09-25T23:11:35.893Z,4.70
2018-09-25T23:14:09.627Z,4.60
2018-09-25T23:16:43.425Z,4.60
2018-09-25T23:19:17.071Z,4.70
2018-09-25T23:21:50.853Z,4.60
2018-09-25T23:24:24.599Z,4.70
2018-09-25T23:26:58.316Z,4.70
2018-09-25T23:29:31.901Z,4.60
2018-09-25T23:32:05.692Z,4.60
2018-09-25T23:34:39.200Z,4.60
2018-09-25T23:37:12.803Z,4.60
2018-09-25T23:40:44.380Z,4.70
2018-09-25T23:43:17.953Z,4.70
2018-09-25T23:46:06.649Z,4.70
2018-09-25T23:49:41.083Z,4.80
2018-09-25T23:52:14.594Z,4.70
2018-09-25T23:56:51.075Z,4.80
2018-09-25T23:59:24.780Z,4.80
